createdAt,value
2022-11-26T00:00:12.323Z,1021.70
2022-11-26T00:01:12.321Z,1021.74
2022-11-26T00:02:12.341Z,1021.74
2022-11-26T00:03:12.375Z,1021.73
2022-11-26T00:04:12.312Z,1021.74
2022-11-26T00:05:12.295Z,1021.76
2022-11-26T00:06:12.321Z,1021.78
2022-11-26T00:07:12.348Z,1021.80
2022-11-26T00:08:12.284Z,1021.80
2022-11-26T00:09:12.279Z,1021.84
2022-11-26T00:10:12.292Z,1021.88
2022-11-26T00:11:12.286Z,1021.87
2022-11-26T00:12:12.265Z,1021.85
2022-11-26T00:13:12.269Z,1021.86
2022-11-26T00:14:12.285Z,1021.87
2022-11-26T00:15:12.273Z,1021.87
2022-11-26T00:16:12.305Z,1021.85
2022-11-26T00:17:12.258Z,1021.86
2022-11-26T00:18:12.278Z,1021.88
2022-11-26T00:19:12.244Z,1021.84
2022-11-26T00:20:12.261Z,1021.85
2022-11-26T00:21:12.236Z,1021.95
2022-11-26T00:22:12.244Z,1021.95
2022-11-26T00:23:12.263Z,1021.95
2022-11-26T00:24:12.234Z,1022.00
2022-11-26T00:25:12.292Z,1022.04
2022-11-26T00:26:12.241Z,1022.07
2022-11-26T00:27:12.236Z,1022.07
2022-11-26T00:28:12.222Z,1022.08
2022-11-26T00:29:12.226Z,1022.10
2022-11-26T00:30:12.221Z,1022.11
2022-11-26T00:31:12.270Z,1022.06
2022-11-26T00:32:12.308Z,1022.07
2022-11-26T00:33:12.201Z,1022.08
2022-11-26T00:34:12.205Z,1022.10
2022-11-26T00:35:12.190Z,1022.09
2022-11-26T00:36:12.203Z,1022.08
2022-11-26T00:37:12.180Z,1022.16
2022-11-26T00:38:12.187Z,1022.14
2022-11-26T00:39:12.193Z,1022.15
2022-11-26T00:40:12.165Z,1022.14
2022-11-26T00:41:12.186Z,1022.15
2022-11-26T00:42:12.172Z,1022.14
2022-11-26T00:43:12.178Z,1022.17
2022-11-26T00:44:12.168Z,1022.24
2022-11-26T00:45:12.170Z,1022.25
2022-11-26T00:46:12.167Z,1022.24
2022-11-26T00:47:12.159Z,1022.22
2022-11-26T00:48:12.137Z,1022.24
2022-11-26T00:49:12.157Z,1022.23
2022-11-26T00:50:12.145Z,1022.22
2022-11-26T00:51:12.133Z,1022.24
2022-11-26T00:52:12.130Z,1022.29
2022-11-26T00:53:12.124Z,1022.23
2022-11-26T00:54:12.141Z,1022.28
2022-11-26T00:55:12.151Z,1022.30
2022-11-26T00:56:12.113Z,1022.28
2022-11-26T00:57:12.122Z,1022.33
2022-11-26T00:58:12.117Z,1022.34
2022-11-26T00:59:12.122Z,1022.32
2022-11-26T01:00:12.100Z,1022.34
2022-11-26T01:01:12.143Z,1022.36
2022-11-26T01:02:12.183Z,1022.39
2022-11-26T01:03:12.101Z,1022.42
2022-11-26T01:04:12.084Z,1022.42
2022-11-26T01:05:12.085Z,1022.45
2022-11-26T01:06:12.075Z,1022.46
2022-11-26T01:07:12.142Z,1022.52
2022-11-26T01:08:12.083Z,1022.49
2022-11-26T01:09:12.072Z,1022.51
2022-11-26T01:10:12.086Z,1022.55
2022-11-26T01:11:12.097Z,1022.56
2022-11-26T01:12:12.065Z,1022.54
2022-11-26T01:13:12.072Z,1022.58
2022-11-26T01:14:12.052Z,1022.59
2022-11-26T01:15:12.063Z,1022.61
2022-11-26T01:16:12.096Z,1022.63
2022-11-26T01:17:12.061Z,1022.65
2022-11-26T01:18:12.049Z,1022.64
2022-11-26T01:19:12.053Z,1022.63
2022-11-26T01:20:12.042Z,1022.61
2022-11-26T01:21:12.026Z,1022.64
2022-11-26T01:22:12.033Z,1022.63
2022-11-26T01:23:12.023Z,1022.67
2022-11-26T01:24:12.059Z,1022.63
2022-11-26T01:25:12.027Z,1022.63
2022-11-26T01:26:12.016Z,1022.68
2022-11-26T01:27:12.042Z,1022.68
2022-11-26T01:28:12.000Z,1022.67
2022-11-26T01:29:12.008Z,1022.72
2022-11-26T01:30:11.991Z,1022.70
2022-11-26T01:31:12.008Z,1022.73
2022-11-26T01:32:12.009Z,1022.73
2022-11-26T01:33:12.011Z,1022.74
2022-11-26T01:34:11.994Z,1022.73
2022-11-26T01:35:11.976Z,1022.77
2022-11-26T01:36:11.968Z,1022.78
2022-11-26T01:37:11.973Z,1022.72
2022-11-26T01:38:11.976Z,1022.73
2022-11-26T01:39:11.979Z,1022.72
2022-11-26T01:40:11.971Z,1022.78
2022-11-26T01:41:11.965Z,1022.74
2022-11-26T01:42:11.948Z,1022.73
2022-11-26T01:43:11.970Z,1022.77
2022-11-26T01:44:11.953Z,1022.78
2022-11-26T01:45:11.956Z,1022.76
2022-11-26T01:46:11.984Z,1022.81
2022-11-26T01:47:11.935Z,1022.81
2022-11-26T01:48:11.928Z,1022.79
2022-11-26T01:49:11.940Z,1022.76
2022-11-26T01:50:11.917Z,1022.79
2022-11-26T01:51:11.934Z,1022.78
2022-11-26T01:52:11.917Z,1022.79
2022-11-26T01:53:11.937Z,1022.79
2022-11-26T01:54:11.916Z,1022.79
2022-11-26T01:55:11.906Z,1022.77
2022-11-26T01:56:11.921Z,1022.77
2022-11-26T01:57:11.900Z,1022.78
2022-11-26T01:58:11.903Z,1022.74
2022-11-26T01:59:11.925Z,1022.80
2022-11-26T02:00:11.898Z,1022.82
2022-11-26T02:01:11.956Z,1022.85
2022-11-26T02:02:11.982Z,1022.86
2022-11-26T02:03:11.879Z,1022.84
2022-11-26T02:04:11.882Z,1022.86
2022-11-26T02:05:11.880Z,1022.85
2022-11-26T02:06:11.871Z,1022.84
2022-11-26T02:07:11.883Z,1022.83
2022-11-26T02:08:11.857Z,1022.84
2022-11-26T02:09:11.852Z,1022.82
2022-11-26T02:10:11.860Z,1022.86
2022-11-26T02:11:11.871Z,1022.89
2022-11-26T02:12:11.858Z,1022.86
2022-11-26T02:13:11.839Z,1022.87
2022-11-26T02:14:11.835Z,1022.85
2022-11-26T02:15:11.868Z,1022.78
2022-11-26T02:16:11.892Z,1022.81
2022-11-26T02:17:11.838Z,1022.79
2022-11-26T02:18:11.820Z,1022.78
2022-11-26T02:19:11.832Z,1022.79
2022-11-26T02:20:11.827Z,1022.78
2022-11-26T02:21:11.824Z,1022.78
2022-11-26T02:22:11.813Z,1022.81
2022-11-26T02:23:11.798Z,1022.78
2022-11-26T02:24:11.814Z,1022.74
2022-11-26T02:25:11.791Z,1022.77
2022-11-26T02:26:11.796Z,1022.73
2022-11-26T02:27:11.810Z,1022.75
2022-11-26T02:28:11.796Z,1022.77
2022-11-26T02:29:11.783Z,1022.77
2022-11-26T02:30:11.818Z,1022.79
2022-11-26T02:31:11.850Z,1022.77
2022-11-26T02:32:11.873Z,1022.78
2022-11-26T02:33:11.774Z,1022.80
2022-11-26T02:34:11.767Z,1022.75
2022-11-26T02:35:11.766Z,1022.81
2022-11-26T02:36:11.770Z,1022.82
2022-11-26T02:37:11.778Z,1022.77
2022-11-26T02:38:11.764Z,1022.81
2022-11-26T02:39:11.756Z,1022.81
2022-11-26T02:40:11.748Z,1022.83
2022-11-26T02:41:11.747Z,1022.86
2022-11-26T02:42:11.759Z,1022.85
2022-11-26T02:43:11.740Z,1022.80
2022-11-26T02:44:11.737Z,1022.80
2022-11-26T02:45:11.719Z,1022.77
2022-11-26T02:46:11.860Z,1022.76
2022-11-26T02:47:11.733Z,1022.73
2022-11-26T02:48:11.729Z,1022.76
2022-11-26T02:49:11.715Z,1022.78
2022-11-26T02:50:11.730Z,1022.77
2022-11-26T02:51:11.733Z,1022.77
2022-11-26T02:52:11.703Z,1022.81
2022-11-26T02:53:11.702Z,1022.76
2022-11-26T02:54:11.687Z,1022.71
2022-11-26T02:55:11.693Z,1022.73
2022-11-26T02:56:11.700Z,1022.73
2022-11-26T02:57:11.693Z,1022.69
2022-11-26T02:58:11.674Z,1022.71
2022-11-26T02:59:11.687Z,1022.75
2022-11-26T03:00:11.689Z,1022.73
2022-11-26T03:01:11.713Z,1022.75
2022-11-26T03:02:11.674Z,1022.76
2022-11-26T03:03:11.694Z,1022.79
2022-11-26T03:04:11.725Z,1022.76
2022-11-26T03:05:11.653Z,1022.78
2022-11-26T03:06:11.646Z,1022.76
2022-11-26T03:07:11.672Z,1022.77
2022-11-26T03:08:11.664Z,1022.73
2022-11-26T03:09:11.642Z,1022.77
2022-11-26T03:10:11.637Z,1022.77
2022-11-26T03:11:11.641Z,1022.80
2022-11-26T03:12:11.687Z,1022.77
2022-11-26T03:13:11.629Z,1022.75
2022-11-26T03:14:11.614Z,1022.71
2022-11-26T03:15:11.611Z,1022.72
2022-11-26T03:16:11.698Z,1022.73
2022-11-26T03:17:11.600Z,1022.74
2022-11-26T03:18:11.608Z,1022.75
2022-11-26T03:19:11.624Z,1022.75
2022-11-26T03:20:11.601Z,1022.78
2022-11-26T03:21:11.600Z,1022.80
2022-11-26T03:22:11.598Z,1022.79
2022-11-26T03:23:11.593Z,1022.85
2022-11-26T03:24:11.591Z,1022.88
2022-11-26T03:25:11.571Z,1022.85
2022-11-26T03:26:11.589Z,1022.90
2022-11-26T03:27:11.564Z,1022.90
2022-11-26T03:28:11.577Z,1022.88
2022-11-26T03:29:11.558Z,1022.86
2022-11-26T03:30:11.563Z,1022.87
2022-11-26T03:31:11.611Z,1022.89
2022-11-26T03:32:11.555Z,1022.90
2022-11-26T03:33:11.544Z,1022.92
2022-11-26T03:34:11.548Z,1022.93
2022-11-26T03:35:11.565Z,1022.96
2022-11-26T03:36:11.537Z,1022.98
2022-11-26T03:37:11.532Z,1022.96
2022-11-26T03:38:11.545Z,1022.98
2022-11-26T03:39:11.531Z,1023.01
2022-11-26T03:40:11.525Z,1023.00
2022-11-26T03:41:11.522Z,1023.04
2022-11-26T03:42:11.525Z,1023.09
2022-11-26T03:43:11.518Z,1023.01
2022-11-26T03:44:11.510Z,1023.07
2022-11-26T03:45:11.512Z,1023.06
2022-11-26T03:46:11.522Z,1023.10
2022-11-26T03:47:11.508Z,1023.08
2022-11-26T03:48:11.507Z,1023.10
2022-11-26T03:49:11.508Z,1023.11
2022-11-26T03:50:11.512Z,1023.14
2022-11-26T03:51:11.494Z,1023.15
2022-11-26T03:52:11.475Z,1023.13
2022-11-26T03:53:11.469Z,1023.14
2022-11-26T03:54:11.480Z,1023.21
2022-11-26T03:55:11.473Z,1023.18
2022-11-26T03:56:11.474Z,1023.21
2022-11-26T03:57:11.451Z,1023.25
2022-11-26T03:58:11.470Z,1023.27
2022-11-26T03:59:11.458Z,1023.24
2022-11-26T04:00:11.451Z,1023.29
2022-11-26T04:01:11.502Z,1023.30
2022-11-26T04:02:11.452Z,1023.30
2022-11-26T04:03:11.483Z,1023.33
2022-11-26T04:04:11.443Z,1023.31
2022-11-26T04:05:11.438Z,1023.30
2022-11-26T04:06:11.425Z,1023.32
2022-11-26T04:07:11.465Z,1023.31
2022-11-26T04:08:11.432Z,1023.37
2022-11-26T04:09:11.420Z,1023.35
2022-11-26T04:10:11.422Z,1023.32
2022-11-26T04:11:11.416Z,1023.38
2022-11-26T04:12:11.426Z,1023.35
2022-11-26T04:13:11.398Z,1023.40
2022-11-26T04:14:11.409Z,1023.41
2022-11-26T04:15:11.397Z,1023.42
2022-11-26T04:16:11.430Z,1023.48
2022-11-26T04:17:11.398Z,1023.50
2022-11-26T04:18:11.395Z,1023.50
2022-11-26T04:19:11.367Z,1023.49
2022-11-26T04:20:11.370Z,1023.53
2022-11-26T04:21:11.376Z,1023.57
2022-11-26T04:22:11.363Z,1023.59
2022-11-26T04:23:11.388Z,1023.60
2022-11-26T04:24:11.375Z,1023.62
2022-11-26T04:25:11.349Z,1023.62
2022-11-26T04:26:11.350Z,1023.60
2022-11-26T04:27:11.355Z,1023.63
2022-11-26T04:28:11.351Z,1023.65
2022-11-26T04:29:11.335Z,1023.66
2022-11-26T04:30:11.333Z,1023.68
2022-11-26T04:31:11.439Z,1023.72
2022-11-26T04:32:11.420Z,1023.69
2022-11-26T04:33:11.315Z,1023.69
2022-11-26T04:34:11.332Z,1023.70
2022-11-26T04:35:11.330Z,1023.74
2022-11-26T04:36:11.317Z,1023.80
2022-11-26T04:37:11.304Z,1023.78
2022-11-26T04:38:11.317Z,1023.78
2022-11-26T04:39:11.326Z,1023.80
2022-11-26T04:40:11.330Z,1023.86
2022-11-26T04:41:11.285Z,1023.90
2022-11-26T04:42:11.285Z,1023.93
2022-11-26T04:43:11.295Z,1024.00
2022-11-26T04:44:11.292Z,1024.01
2022-11-26T04:45:11.270Z,1024.00
2022-11-26T04:46:11.312Z,1023.98
2022-11-26T04:47:11.280Z,1023.99
2022-11-26T04:48:11.263Z,1024.03
2022-11-26T04:49:11.272Z,1024.00
2022-11-26T04:50:11.256Z,1024.02
2022-11-26T04:51:11.259Z,1023.98
2022-11-26T04:52:11.262Z,1024.00
2022-11-26T04:53:11.260Z,1023.98
2022-11-26T04:54:13.119Z,1023.96
2022-11-26T04:55:11.268Z,1023.97
2022-11-26T04:56:11.243Z,1024.02
2022-11-26T04:57:11.222Z,1023.95
2022-11-26T04:58:11.224Z,1023.96
2022-11-26T04:59:11.226Z,1023.94
2022-11-26T05:00:11.217Z,1024.03
2022-11-26T05:01:11.289Z,1024.02
2022-11-26T05:02:11.224Z,1024.04
2022-11-26T05:03:11.232Z,1024.04
2022-11-26T05:04:11.204Z,1024.06
2022-11-26T05:05:11.199Z,1024.05
2022-11-26T05:06:11.196Z,1024.04
2022-11-26T05:07:11.259Z,1024.04
2022-11-26T05:08:11.200Z,1024.08
2022-11-26T05:09:11.195Z,1024.12
2022-11-26T05:10:11.182Z,1024.13
2022-11-26T05:11:11.202Z,1024.22
2022-11-26T05:12:11.182Z,1024.23
2022-11-26T05:13:11.173Z,1024.30
2022-11-26T05:14:11.187Z,1024.32
2022-11-26T05:15:11.157Z,1024.30
2022-11-26T05:16:11.195Z,1024.33
2022-11-26T05:17:11.149Z,1024.31
2022-11-26T05:18:11.162Z,1024.25
2022-11-26T05:19:11.157Z,1024.30
2022-11-26T05:20:11.138Z,1024.25
2022-11-26T05:21:11.138Z,1024.29
2022-11-26T05:22:11.135Z,1024.26
2022-11-26T05:23:11.137Z,1024.27
2022-11-26T05:24:11.135Z,1024.20
2022-11-26T05:25:11.128Z,1024.19
2022-11-26T05:26:11.128Z,1024.25
2022-11-26T05:27:11.139Z,1024.21
2022-11-26T05:28:11.121Z,1024.22
2022-11-26T05:29:11.098Z,1024.25
2022-11-26T05:30:11.108Z,1024.25
2022-11-26T05:31:11.092Z,1024.27
2022-11-26T05:32:11.168Z,1024.26
2022-11-26T05:33:11.099Z,1024.26
2022-11-26T05:34:11.099Z,1024.24
2022-11-26T05:35:11.096Z,1024.21
2022-11-26T05:36:11.082Z,1024.22
2022-11-26T05:37:11.069Z,1024.22
2022-11-26T05:38:11.067Z,1024.22
2022-11-26T05:39:11.063Z,1024.21
2022-11-26T05:40:11.062Z,1024.29
2022-11-26T05:41:11.081Z,1024.32
2022-11-26T05:42:11.066Z,1024.30
2022-11-26T05:43:11.085Z,1024.33
2022-11-26T05:44:11.059Z,1024.32
2022-11-26T05:45:11.054Z,1024.33
2022-11-26T05:46:11.149Z,1024.36
2022-11-26T05:47:11.031Z,1024.37
2022-11-26T05:48:11.031Z,1024.38
2022-11-26T05:49:11.031Z,1024.41
2022-11-26T05:50:11.030Z,1024.43
2022-11-26T05:51:11.024Z,1024.46
2022-11-26T05:52:11.015Z,1024.43
2022-11-26T05:53:11.008Z,1024.43
2022-11-26T05:54:11.010Z,1024.45
2022-11-26T05:55:10.998Z,1024.47
2022-11-26T05:56:11.014Z,1024.50
2022-11-26T05:57:11.008Z,1024.51
2022-11-26T05:58:10.990Z,1024.51
2022-11-26T05:59:11.019Z,1024.50
2022-11-26T06:00:11.010Z,1024.45
2022-11-26T06:01:10.992Z,1024.50
2022-11-26T06:02:11.134Z,1024.50
2022-11-26T06:03:11.495Z,1024.49
2022-11-26T06:04:10.986Z,1024.46
2022-11-26T06:05:10.960Z,1024.45
2022-11-26T06:06:10.975Z,1024.45
2022-11-26T06:07:10.999Z,1024.48
2022-11-26T06:08:10.965Z,1024.53
2022-11-26T06:09:10.945Z,1024.51
2022-11-26T06:10:10.946Z,1024.51
2022-11-26T06:11:10.959Z,1024.48
2022-11-26T06:12:10.939Z,1024.48
2022-11-26T06:13:10.944Z,1024.49
2022-11-26T06:14:10.946Z,1024.50
2022-11-26T06:15:10.954Z,1024.50
2022-11-26T06:16:10.992Z,1024.51
2022-11-26T06:17:10.915Z,1024.55
2022-11-26T06:18:10.928Z,1024.52
2022-11-26T06:19:10.914Z,1024.51
2022-11-26T06:20:10.904Z,1024.51
2022-11-26T06:21:10.898Z,1024.48
2022-11-26T06:22:10.896Z,1024.49
2022-11-26T06:23:10.888Z,1024.49
2022-11-26T06:24:10.906Z,1024.51
2022-11-26T06:25:10.882Z,1024.54
2022-11-26T06:26:10.880Z,1024.48
2022-11-26T06:27:10.891Z,1024.49
2022-11-26T06:28:10.895Z,1024.49
2022-11-26T06:29:10.885Z,1024.50
2022-11-26T06:30:10.885Z,1024.48
2022-11-26T06:31:10.984Z,1024.54
2022-11-26T06:32:10.857Z,1024.56
2022-11-26T06:33:10.868Z,1024.55
2022-11-26T06:34:10.861Z,1024.58
2022-11-26T06:35:10.847Z,1024.61
2022-11-26T06:36:10.855Z,1024.58
2022-11-26T06:37:10.857Z,1024.60
2022-11-26T06:38:10.854Z,1024.62
2022-11-26T06:39:10.833Z,1024.63
2022-11-26T06:40:10.840Z,1024.63
2022-11-26T06:41:10.840Z,1024.62
2022-11-26T06:42:10.834Z,1024.66
2022-11-26T06:43:10.827Z,1024.66
2022-11-26T06:44:10.823Z,1024.69
2022-11-26T06:45:10.825Z,1024.65
2022-11-26T06:46:10.877Z,1024.69
2022-11-26T06:47:10.835Z,1024.75
2022-11-26T06:48:10.795Z,1024.74
2022-11-26T06:49:10.805Z,1024.81
2022-11-26T06:50:11.109Z,1024.83
2022-11-26T06:51:10.786Z,1024.86
2022-11-26T06:52:10.795Z,1024.90
2022-11-26T06:53:10.791Z,1024.91
2022-11-26T06:54:10.771Z,1024.89
2022-11-26T06:55:10.777Z,1024.88
2022-11-26T06:56:16.436Z,1024.92
2022-11-26T06:57:10.761Z,1024.92
2022-11-26T06:58:10.760Z,1024.96
2022-11-26T06:59:10.769Z,1024.93
2022-11-26T07:00:10.759Z,1024.97
2022-11-26T07:01:10.861Z,1025.03
2022-11-26T07:02:10.809Z,1025.02
2022-11-26T07:03:10.769Z,1025.03
2022-11-26T07:04:10.742Z,1025.03
2022-11-26T07:05:10.750Z,1025.04
2022-11-26T07:06:10.727Z,1025.01
2022-11-26T07:07:10.755Z,1025.05
2022-11-26T07:08:10.728Z,1025.04
2022-11-26T07:09:10.712Z,1025.07
2022-11-26T07:10:10.706Z,1025.05
2022-11-26T07:11:10.709Z,1025.05
2022-11-26T07:12:10.721Z,1025.07
2022-11-26T07:13:10.709Z,1025.10
2022-11-26T07:14:10.712Z,1025.11
2022-11-26T07:15:10.707Z,1025.13
2022-11-26T07:16:10.720Z,1025.15
2022-11-26T07:17:10.693Z,1025.21
2022-11-26T07:18:10.674Z,1025.18
2022-11-26T07:19:10.707Z,1025.23
2022-11-26T07:20:10.680Z,1025.22
2022-11-26T07:21:10.673Z,1025.22
2022-11-26T07:22:10.672Z,1025.26
2022-11-26T07:23:10.670Z,1025.21
2022-11-26T07:24:10.663Z,1025.23
2022-11-26T07:25:12.753Z,1025.25
2022-11-26T07:26:10.643Z,1025.24
2022-11-26T07:27:10.657Z,1025.25
2022-11-26T07:28:10.662Z,1025.30
2022-11-26T07:29:10.633Z,1025.31
2022-11-26T07:30:10.639Z,1025.30
2022-11-26T07:31:16.250Z,1025.33
2022-11-26T07:32:10.625Z,1025.39
2022-11-26T07:33:10.638Z,1025.44
2022-11-26T07:34:10.621Z,1025.39
2022-11-26T07:35:10.653Z,1025.42
2022-11-26T07:36:10.621Z,1025.39
2022-11-26T07:37:10.597Z,1025.40
2022-11-26T07:38:10.595Z,1025.39
2022-11-26T07:39:10.595Z,1025.39
2022-11-26T07:40:10.601Z,1025.38
2022-11-26T07:41:10.599Z,1025.42
2022-11-26T07:42:10.579Z,1025.40
2022-11-26T07:43:10.589Z,1025.42
2022-11-26T07:44:10.568Z,1025.47
2022-11-26T07:45:10.585Z,1025.48
2022-11-26T07:46:10.691Z,1025.46
2022-11-26T07:47:10.573Z,1025.48
2022-11-26T07:48:16.557Z,1025.43
2022-11-26T07:49:10.570Z,1025.43
2022-11-26T07:50:10.598Z,1025.42
2022-11-26T07:51:10.581Z,1025.48
2022-11-26T07:52:10.539Z,1025.45
2022-11-26T07:53:10.539Z,1025.46
2022-11-26T07:54:10.544Z,1025.45
2022-11-26T07:55:12.679Z,1025.40
2022-11-26T07:56:10.519Z,1025.46
2022-11-26T07:57:10.522Z,1025.45
2022-11-26T07:58:10.530Z,1025.45
2022-11-26T07:59:10.518Z,1025.46
2022-11-26T08:00:10.506Z,1025.48
2022-11-26T08:01:10.582Z,1025.48
2022-11-26T08:02:10.544Z,1025.50
2022-11-26T08:03:10.511Z,1025.53
2022-11-26T08:04:10.504Z,1025.54
2022-11-26T08:05:10.491Z,1025.52
2022-11-26T08:06:10.480Z,1025.54
2022-11-26T08:07:10.607Z,1025.50
2022-11-26T08:08:10.523Z,1025.47
2022-11-26T08:09:10.498Z,1025.52
2022-11-26T08:10:10.463Z,1025.46
2022-11-26T08:11:10.483Z,1025.45
2022-11-26T08:12:10.476Z,1025.48
2022-11-26T08:13:10.479Z,1025.48
2022-11-26T08:14:10.461Z,1025.45
2022-11-26T08:15:10.461Z,1025.43
2022-11-26T08:16:10.544Z,1025.43
2022-11-26T08:17:10.455Z,1025.43
2022-11-26T08:18:10.455Z,1025.43
2022-11-26T08:19:10.448Z,1025.38
2022-11-26T08:20:10.452Z,1025.41
2022-11-26T08:21:10.426Z,1025.41
2022-11-26T08:22:10.436Z,1025.42
2022-11-26T08:23:10.472Z,1025.44
2022-11-26T08:24:10.410Z,1025.44
2022-11-26T08:25:10.427Z,1025.44
2022-11-26T08:26:33.564Z,1025.49
2022-11-26T08:27:10.403Z,1025.46
2022-11-26T08:28:10.399Z,1025.45
2022-11-26T08:29:10.402Z,1025.44
2022-11-26T08:30:10.400Z,1025.44
2022-11-26T08:31:10.408Z,1025.46
2022-11-26T08:32:10.410Z,1025.46
2022-11-26T08:33:10.391Z,1025.50
2022-11-26T08:34:10.368Z,1025.49
2022-11-26T08:35:10.383Z,1025.52
2022-11-26T08:36:10.363Z,1025.52
2022-11-26T08:37:10.382Z,1025.50
2022-11-26T08:38:10.406Z,1025.55
2022-11-26T08:39:10.385Z,1025.59
2022-11-26T08:40:13.775Z,1025.57
2022-11-26T08:41:10.373Z,1025.58
2022-11-26T08:42:10.360Z,1025.60
2022-11-26T08:43:10.344Z,1025.61
2022-11-26T08:44:10.333Z,1025.62
2022-11-26T08:45:10.335Z,1025.56
2022-11-26T08:46:10.355Z,1025.61
2022-11-26T08:47:10.332Z,1025.64
2022-11-26T08:48:10.318Z,1025.66
2022-11-26T08:49:10.322Z,1025.61
2022-11-26T08:50:10.315Z,1025.64
2022-11-26T08:51:10.306Z,1025.65
2022-11-26T08:52:10.315Z,1025.65
2022-11-26T08:53:10.318Z,1025.62
2022-11-26T08:54:10.304Z,1025.58
2022-11-26T08:55:10.328Z,1025.60
2022-11-26T08:56:10.289Z,1025.64
2022-11-26T08:57:10.298Z,1025.59
2022-11-26T08:58:10.302Z,1025.61
2022-11-26T08:59:10.282Z,1025.59
2022-11-26T09:00:10.289Z,1025.57
2022-11-26T09:01:10.361Z,1025.55
2022-11-26T09:02:11.430Z,1025.58
2022-11-26T09:03:10.311Z,1025.59
2022-11-26T09:04:10.265Z,1025.58
2022-11-26T09:05:10.261Z,1025.58
2022-11-26T09:06:10.249Z,1025.58
2022-11-26T09:07:10.312Z,1025.62
2022-11-26T09:08:10.236Z,1025.61
2022-11-26T09:09:10.243Z,1025.64
2022-11-26T09:10:10.228Z,1025.66
2022-11-26T09:11:10.252Z,1025.70
2022-11-26T09:12:10.234Z,1025.73
2022-11-26T09:13:10.228Z,1025.56
2022-11-26T09:14:10.216Z,1025.77
2022-11-26T09:15:10.331Z,1025.78
2022-11-26T09:16:10.279Z,1025.80
2022-11-26T09:17:10.223Z,1025.80
2022-11-26T09:18:10.201Z,1025.77
2022-11-26T09:19:10.218Z,1025.75
2022-11-26T09:20:10.214Z,1025.76
2022-11-26T09:21:10.212Z,1025.79
2022-11-26T09:22:10.203Z,1025.79
2022-11-26T09:23:10.211Z,1025.81
2022-11-26T09:24:10.203Z,1025.82
2022-11-26T09:25:10.197Z,1025.84
2022-11-26T09:26:10.206Z,1025.80
2022-11-26T09:27:10.212Z,1025.86
2022-11-26T09:28:10.183Z,1025.85
2022-11-26T09:29:10.250Z,1025.85
2022-11-26T09:30:10.164Z,1025.86
2022-11-26T09:31:10.180Z,1025.85
2022-11-26T09:32:29.612Z,1025.86
2022-11-26T09:33:10.160Z,1025.88
2022-11-26T09:34:10.209Z,1025.83
2022-11-26T09:35:10.171Z,1025.80
2022-11-26T09:36:10.176Z,1025.79
2022-11-26T09:37:10.155Z,1025.80
2022-11-26T09:38:10.156Z,1025.82
2022-11-26T09:39:10.168Z,1025.81
2022-11-26T09:40:10.148Z,1025.83
2022-11-26T09:41:10.143Z,1025.78
2022-11-26T09:42:10.136Z,1025.77
2022-11-26T09:43:10.164Z,1025.78
2022-11-26T09:44:10.128Z,1025.80
2022-11-26T09:45:10.131Z,1025.80
2022-11-26T09:46:10.205Z,1025.84
2022-11-26T09:47:12.851Z,1025.84
2022-11-26T09:48:10.108Z,1025.86
2022-11-26T09:49:10.123Z,1025.89
2022-11-26T09:50:10.103Z,1025.87
2022-11-26T09:51:10.119Z,1025.87
2022-11-26T09:52:10.113Z,1025.89
2022-11-26T09:53:10.111Z,1025.89
2022-11-26T09:54:10.089Z,1025.91
2022-11-26T09:55:10.094Z,1025.91
2022-11-26T09:56:10.142Z,1025.92
2022-11-26T09:57:10.110Z,1025.93
2022-11-26T09:58:10.079Z,1025.94
2022-11-26T09:59:10.112Z,1025.91
2022-11-26T10:00:10.167Z,1025.90
2022-11-26T10:01:10.140Z,1025.91
2022-11-26T10:02:10.168Z,1025.90
2022-11-26T10:03:10.069Z,1025.88
2022-11-26T10:04:10.060Z,1025.91
2022-11-26T10:05:10.080Z,1025.87
2022-11-26T10:06:10.075Z,1025.86
2022-11-26T10:07:10.138Z,1025.87
2022-11-26T10:08:10.072Z,1025.84
2022-11-26T10:09:10.077Z,1025.86
2022-11-26T10:10:10.056Z,1025.91
2022-11-26T10:11:10.046Z,1025.88
2022-11-26T10:12:24.442Z,1025.90
2022-11-26T10:13:19.176Z,1025.93
2022-11-26T10:14:10.049Z,1025.93
2022-11-26T10:15:10.063Z,1025.92
2022-11-26T10:16:10.082Z,1025.91
2022-11-26T10:17:10.042Z,1025.89
2022-11-26T10:18:10.036Z,1025.89
2022-11-26T10:19:10.036Z,1025.93
2022-11-26T10:20:10.008Z,1025.88
2022-11-26T10:21:10.026Z,1025.88
2022-11-26T10:22:10.057Z,1025.85
2022-11-26T10:23:10.011Z,1025.88
2022-11-26T10:24:10.011Z,1025.86
2022-11-26T10:25:09.997Z,1025.83
2022-11-26T10:26:10.007Z,1025.82
2022-11-26T10:27:10.000Z,1025.82
2022-11-26T10:28:09.996Z,1025.80
2022-11-26T10:29:09.990Z,1025.88
2022-11-26T10:30:09.978Z,1025.87
2022-11-26T10:31:10.104Z,1025.93
2022-11-26T10:32:10.007Z,1025.96
2022-11-26T10:33:09.971Z,1025.98
2022-11-26T10:34:09.964Z,1026.03
2022-11-26T10:35:09.965Z,1025.98
2022-11-26T10:36:09.980Z,1025.96
2022-11-26T10:37:09.979Z,1025.99
2022-11-26T10:38:09.951Z,1025.98
2022-11-26T10:39:09.956Z,1026.00
2022-11-26T10:40:09.949Z,1025.97
2022-11-26T10:41:09.958Z,1025.91
2022-11-26T10:42:09.952Z,1025.95
2022-11-26T10:43:09.939Z,1025.92
2022-11-26T10:44:09.929Z,1025.89
2022-11-26T10:45:12.353Z,1025.88
2022-11-26T10:46:10.016Z,1025.92
2022-11-26T10:47:09.978Z,1025.84
2022-11-26T10:48:09.929Z,1025.83
2022-11-26T10:49:09.926Z,1025.81
2022-11-26T10:50:31.880Z,1025.85
2022-11-26T10:51:09.913Z,1025.83
2022-11-26T10:52:09.914Z,1025.86
2022-11-26T10:53:09.921Z,1025.87
2022-11-26T10:54:09.902Z,1025.85
2022-11-26T10:55:09.917Z,1025.80
2022-11-26T10:56:09.899Z,1025.82
2022-11-26T10:57:09.906Z,1025.77
2022-11-26T10:58:09.892Z,1025.81
2022-11-26T10:59:09.881Z,1025.86
2022-11-26T11:00:09.895Z,1025.85
2022-11-26T11:01:09.965Z,1025.86
2022-11-26T11:02:09.942Z,1025.87
2022-11-26T11:03:09.903Z,1025.85
2022-11-26T11:04:09.869Z,1025.88
2022-11-26T11:05:09.886Z,1025.84
2022-11-26T11:06:09.879Z,1025.89
2022-11-26T11:07:11.968Z,1025.87
2022-11-26T11:08:09.877Z,1025.90
2022-11-26T11:09:09.848Z,1025.90
2022-11-26T11:10:09.874Z,1025.94
2022-11-26T11:11:09.866Z,1025.86
2022-11-26T11:12:09.867Z,1025.84
2022-11-26T11:13:09.855Z,1025.83
2022-11-26T11:14:09.832Z,1025.82
2022-11-26T11:15:09.830Z,1025.77
2022-11-26T11:16:09.891Z,1025.77
2022-11-26T11:17:09.878Z,1025.78
2022-11-26T11:18:09.842Z,1025.75
2022-11-26T11:19:09.852Z,1025.79
2022-11-26T11:20:09.818Z,1025.79
2022-11-26T11:21:09.811Z,1025.72
2022-11-26T11:22:09.823Z,1025.73
2022-11-26T11:23:09.829Z,1025.71
2022-11-26T11:24:09.820Z,1025.73
2022-11-26T11:25:09.798Z,1025.69
2022-11-26T11:26:09.796Z,1025.75
2022-11-26T11:27:09.803Z,1025.71
2022-11-26T11:28:12.446Z,1025.73
2022-11-26T11:29:09.796Z,1025.72
2022-11-26T11:30:09.790Z,1025.71
2022-11-26T11:31:09.833Z,1025.69
2022-11-26T11:32:09.792Z,1025.68
2022-11-26T11:33:09.790Z,1025.66
2022-11-26T11:34:09.772Z,1025.65
2022-11-26T11:35:09.782Z,1025.65
2022-11-26T11:36:09.780Z,1025.66
2022-11-26T11:37:14.405Z,1025.68
2022-11-26T11:38:09.773Z,1025.69
2022-11-26T11:39:09.751Z,1025.67
2022-11-26T11:40:14.281Z,1025.71
2022-11-26T11:41:09.749Z,1025.70
2022-11-26T11:42:09.749Z,1025.70
2022-11-26T11:43:09.755Z,1025.70
2022-11-26T11:44:09.744Z,1025.68
2022-11-26T11:45:09.735Z,1025.69
2022-11-26T11:46:09.777Z,1025.69
2022-11-26T11:47:09.738Z,1025.69
2022-11-26T11:48:09.738Z,1025.68
2022-11-26T11:49:09.721Z,1025.70
2022-11-26T11:50:09.720Z,1025.74
2022-11-26T11:51:09.769Z,1025.71
2022-11-26T11:52:09.712Z,1025.73
2022-11-26T11:53:09.716Z,1025.73
2022-11-26T11:54:09.710Z,1025.69
2022-11-26T11:55:09.717Z,1025.67
2022-11-26T11:56:09.697Z,1025.65
2022-11-26T11:57:09.711Z,1025.68
2022-11-26T11:58:09.719Z,1025.67
2022-11-26T11:59:09.697Z,1025.67
2022-11-26T12:00:09.695Z,1025.63
2022-11-26T12:01:09.690Z,1025.65
2022-11-26T12:02:09.717Z,1025.64
2022-11-26T12:03:10.736Z,1025.64
2022-11-26T12:04:12.824Z,1025.63
2022-11-26T12:05:09.757Z,1025.61